Time;durP1;ratioP1;P1;durP2;ratioP2;P2;SDS_P1;SDS_P2;PMS_P1;PMS_P2;Temp;Humidity;BMP_temperature;BMP_pressure;BME280_temperature;BME280_humidity;BME280_pressure;Samples;Min_cycle;Max_cycle;Signal;HPM_P1;HPM_P2
2022/12/05 00:01:15;;;;;;;114.65;38.33;;;4.50;99.90;;;;;;6279052;28;20048;-80
2022/12/05 00:04:18;;;;;;;116.05;36.70;;;4.50;99.90;;;;;;6276530;28;20052;-80
2022/12/05 00:07:20;;;;;;;104.20;35.85;;;4.50;99.90;;;;;;6275062;28;20053;-81
2022/12/05 00:10:22;;;;;;;115.07;36.63;;;4.50;99.90;;;;;;6276917;28;20053;-80
2022/12/05 00:13:23;;;;;;;119.78;40.28;;;4.50;99.90;;;;;;6276109;28;20049;-80
2022/12/05 00:16:27;;;;;;;90.95;34.55;;;4.50;99.90;;;;;;6276803;28;20041;-79
2022/12/05 00:19:30;;;;;;;117.80;38.20;;;4.50;99.90;;;;;;6276804;28;20049;-81
2022/12/05 00:22:32;;;;;;;146.40;43.15;;;4.50;99.90;;;;;;6273615;28;20426;-80
2022/12/05 00:25:36;;;;;;;108.30;34.97;;;4.50;99.90;;;;;;6275628;28;20041;-80
2022/12/05 00:28:38;;;;;;;123.65;36.10;;;4.50;99.90;;;;;;6275438;28;20049;-80
2022/12/05 00:31:39;;;;;;;99.50;35.88;;;4.50;99.90;;;;;;6275975;28;20056;-81
2022/12/05 00:34:42;;;;;;;112.78;36.58;;;4.50;99.90;;;;;;6276927;28;20052;-80
2022/12/05 00:37:44;;;;;;;112.68;34.42;;;4.50;99.90;;;;;;6275270;28;20071;-80
2022/12/05 00:40:46;;;;;;;111.18;37.47;;;4.50;99.90;;;;;;6275650;28;20076;-80
2022/12/05 00:43:48;;;;;;;104.45;37.33;;;4.50;99.90;;;;;;6274821;28;20053;-81
2022/12/05 00:46:50;;;;;;;125.78;36.33;;;4.50;99.90;;;;;;6275902;28;20053;-80
2022/12/05 00:49:53;;;;;;;107.18;37.05;;;4.50;99.90;;;;;;6274384;28;20399;-80
2022/12/05 00:52:54;;;;;;;107.07;32.60;;;4.50;99.90;;;;;;6274990;28;20669;-79
2022/12/05 00:55:56;;;;;;;113.13;37.42;;;4.40;99.90;;;;;;6276280;28;20052;-80
2022/12/05 00:58:59;;;;;;;122.93;34.28;;;4.50;99.90;;;;;;6273572;28;20080;-80
2022/12/05 01:02:01;;;;;;;115.93;36.58;;;4.40;99.90;;;;;;6275461;28;20045;-80
2022/12/05 01:05:05;;;;;;;113.68;39.08;;;4.40;99.90;;;;;;6269076;28;20045;-80
2022/12/05 01:08:07;;;;;;;119.38;35.13;;;4.50;99.90;;;;;;6277544;28;20437;-80
2022/12/05 01:11:10;;;;;;;118.25;36.03;;;4.50;99.90;;;;;;6278635;28;20541;-80
2022/12/05 01:14:14;;;;;;;119.70;35.08;;;4.50;99.90;;;;;;6280595;28;20052;-80
2022/12/05 01:17:15;;;;;;;117.60;37.25;;;4.50;99.90;;;;;;6278111;28;20541;-80
2022/12/05 01:20:18;;;;;;;113.50;36.40;;;4.60;99.90;;;;;;6279635;28;20518;-80
2022/12/05 01:23:22;;;;;;;115.72;37.38;;;4.60;99.90;;;;;;6277109;28;20041;-80
2022/12/05 01:26:24;;;;;;;115.45;34.75;;;4.60;99.90;;;;;;6280081;28;20052;-80
2022/12/05 01:29:26;;;;;;;112.90;36.53;;;4.50;99.90;;;;;;6277975;28;20091;-80
2022/12/05 01:32:27;;;;;;;120.78;34.53;;;4.60;99.90;;;;;;6279632;28;20387;-80
2022/12/05 01:35:33;;;;;;;119.68;35.50;;;4.50;99.90;;;;;;6278684;28;20060;-80
2022/12/05 01:38:34;;;;;;;118.22;35.55;;;4.60;99.90;;;;;;6279009;28;20400;-81
2022/12/05 01:41:37;;;;;;;124.82;35.75;;;4.60;99.90;;;;;;6279530;28;20053;-81
2022/12/05 01:44:59;;;;;;;110.15;34.00;;;4.60;99.90;;;;;;6279350;28;20041;-81
2022/12/05 01:48:05;;;;;;;124.22;37.10;;;4.60;99.90;;;;;;6278884;28;20056;-81
2022/12/05 01:51:08;;;;;;;104.80;34.70;;;4.60;99.90;;;;;;6280503;28;20060;-81
2022/12/05 01:54:11;;;;;;;125.82;35.58;;;4.60;99.90;;;;;;6278894;28;20430;-81
2022/12/05 01:57:15;;;;;;;95.07;31.85;;;4.50;99.90;;;;;;6279478;28;20049;-81
2022/12/05 02:00:19;;;;;;;110.10;35.13;;;4.60;99.90;;;;;;6279559;28;20533;-81
2022/12/05 02:03:21;;;;;;;105.03;31.42;;;4.60;99.90;;;;;;6280017;28;20049;-81
2022/12/05 02:06:26;;;;;;;94.28;32.55;;;4.50;99.90;;;;;;6280960;28;20043;-81
2022/12/05 02:09:28;;;;;;;91.80;33.53;;;4.60;99.90;;;;;;6279094;28;20052;-80
2022/12/05 02:12:29;;;;;;;100.10;31.05;;;4.60;99.90;;;;;;6279776;28;20074;-81
2022/12/05 02:15:41;;;;;;;110.28;34.10;;;4.60;99.90;;;;;;6280190;28;20057;-81
2022/12/05 02:18:54;;;;;;;97.25;33.28;;;4.60;99.90;;;;;;6288006;28;20057;-80
2022/12/05 02:22:26;;;;;;;97.20;31.65;;;4.60;99.90;;;;;;6278169;28;20049;-80
2022/12/05 02:25:53;;;;;;;98.90;32.03;;;4.60;99.90;;;;;;6274599;28;20521;-80
2022/12/05 02:29:27;;;;;;;85.00;30.70;;;4.60;99.90;;;;;;6276336;28;20052;-81
2022/12/05 02:32:44;;;;;;;84.97;28.95;;;4.50;99.90;;;;;;6251324;28;20396;-82
2022/12/05 02:35:54;;;;;;;83.78;27.33;;;4.50;99.90;;;;;;6278127;28;20049;-81
2022/12/05 02:39:02;;;;;;;85.13;28.35;;;4.50;99.90;;;;;;6276245;28;20056;-81
2022/12/05 02:42:10;;;;;;;70.32;28.27;;;4.50;99.90;;;;;;6277349;28;20052;-81
2022/12/05 02:45:15;;;;;;;72.63;29.73;;;4.50;99.90;;;;;;6277878;28;20048;-81
2022/12/05 02:48:20;;;;;;;74.00;27.50;;;4.50;99.90;;;;;;6276167;28;20048;-81
2022/12/05 02:51:25;;;;;;;69.68;31.17;;;4.50;99.90;;;;;;6276456;28;20053;-81
2022/12/05 02:54:32;;;;;;;64.68;27.15;;;4.50;99.90;;;;;;6277054;28;20048;-81
2022/12/05 02:57:36;;;;;;;61.55;26.92;;;4.50;99.90;;;;;;6276218;28;20053;-81
2022/12/05 03:00:40;;;;;;;60.85;25.88;;;4.50;99.90;;;;;;6277349;28;20060;-81
2022/12/05 03:03:44;;;;;;;71.68;26.95;;;4.40;99.90;;;;;;6277431;28;20045;-80
2022/12/05 03:06:49;;;;;;;63.10;28.55;;;4.40;99.90;;;;;;6276708;28;20514;-82
2022/12/05 03:09:56;;;;;;;59.08;27.55;;;4.30;99.90;;;;;;6275946;28;20048;-81
2022/12/05 03:13:03;;;;;;;65.88;27.75;;;4.30;99.90;;;;;;6275455;28;20055;-81
2022/12/05 03:16:09;;;;;;;62.20;26.70;;;4.30;99.90;;;;;;6275300;28;20047;-79
2022/12/05 03:19:17;;;;;;;57.75;26.55;;;4.40;99.90;;;;;;6277346;28;20045;-81
2022/12/05 03:22:26;;;;;;;67.13;28.00;;;4.40;99.90;;;;;;6276237;28;20049;-81
2022/12/05 03:25:35;;;;;;;63.38;28.50;;;4.50;99.90;;;;;;6274452;28;20052;-81
2022/12/05 03:28:47;;;;;;;66.28;29.00;;;4.40;99.90;;;;;;6274490;28;20056;-81
2022/12/05 03:31:57;;;;;;;51.05;26.75;;;4.50;99.90;;;;;;6276031;28;20044;-81
2022/12/05 03:35:06;;;;;;;54.60;24.92;;;4.50;99.90;;;;;;6277036;28;20499;-81
2022/12/05 03:38:12;;;;;;;55.58;26.85;;;4.50;99.90;;;;;;6274906;28;20367;-82
2022/12/05 03:41:22;;;;;;;64.82;27.08;;;4.50;99.90;;;;;;6276590;28;20044;-80
2022/12/05 03:44:31;;;;;;;51.08;23.77;;;4.50;99.90;;;;;;6277416;28;20052;-81
2022/12/05 03:47:38;;;;;;;58.03;24.05;;;4.60;99.90;;;;;;6278237;28;20132;-80
2022/12/05 03:50:45;;;;;;;61.58;25.23;;;4.60;99.90;;;;;;6277692;28;20052;-80
2022/12/05 03:53:51;;;;;;;48.15;23.25;;;4.60;99.90;;;;;;6276654;28;20049;-81
2022/12/05 03:56:58;;;;;;;48.42;23.35;;;4.60;99.90;;;;;;6276039;28;20052;-81
2022/12/05 04:00:04;;;;;;;56.42;28.42;;;4.60;99.90;;;;;;6274857;28;20041;-81
2022/12/05 04:03:10;;;;;;;52.47;24.55;;;4.60;99.90;;;;;;6276841;28;20044;-81
2022/12/05 04:06:18;;;;;;;60.30;24.58;;;4.60;99.90;;;;;;6276496;28;20049;-81
2022/12/05 04:09:25;;;;;;;57.33;23.00;;;4.60;99.90;;;;;;6275372;28;20056;-80
2022/12/05 04:12:31;;;;;;;46.23;25.27;;;4.60;99.90;;;;;;6275764;28;20068;-81
2022/12/05 04:17:02;;;;;;;64.88;26.00;;;4.60;99.90;;;;;;6276410;28;20314;-81
2022/12/05 04:18:59;;;;;;;53.10;23.85;;;4.60;99.90;;;;;;6276174;28;20049;-81
2022/12/05 04:22:02;;;;;;;48.55;21.67;;;4.60;99.90;;;;;;6277418;28;20069;-81
2022/12/05 04:28:34;;;;;;;55.80;21.02;;;4.60;99.90;;;;;;6273222;28;20041;-80
2022/12/05 04:31:42;;;;;;;55.28;26.95;;;4.60;99.90;;;;;;6276805;28;20041;-80
2022/12/05 04:34:53;;;;;;;61.13;26.52;;;4.60;99.90;;;;;;6277370;28;20029;-81
2022/12/05 04:38:02;;;;;;;51.63;22.85;;;4.60;99.90;;;;;;6275306;28;20049;-81
2022/12/05 04:41:07;;;;;;;56.38;24.30;;;4.60;99.90;;;;;;6276684;28;20044;-82
2022/12/05 04:44:12;;;;;;;52.90;22.92;;;4.60;99.90;;;;;;6280477;28;20051;-81
2022/12/05 04:47:17;;;;;;;51.55;23.40;;;4.50;99.90;;;;;;6280797;28;20064;-86
2022/12/05 04:50:21;;;;;;;47.97;25.20;;;4.40;99.90;;;;;;6281662;28;20060;-82
2022/12/05 04:53:29;;;;;;;52.30;25.25;;;4.40;99.90;;;;;;6280942;28;20128;-83
2022/12/05 04:56:36;;;;;;;53.15;24.80;;;4.40;99.90;;;;;;6279858;28;20506;-82
2022/12/05 04:59:38;;;;;;;55.22;23.42;;;4.40;99.90;;;;;;6279157;28;20048;-82
2022/12/05 05:02:44;;;;;;;49.10;23.23;;;4.50;99.90;;;;;;6282063;28;20049;-81
2022/12/05 05:05:49;;;;;;;46.80;24.08;;;4.50;99.90;;;;;;6283146;28;20049;-82
2022/12/05 05:08:54;;;;;;;47.88;21.95;;;4.50;99.90;;;;;;6281456;28;20049;-81
2022/12/05 05:11:56;;;;;;;53.47;22.52;;;4.50;99.90;;;;;;6283573;28;20045;-82
2022/12/05 05:14:57;;;;;;;45.45;20.40;;;4.60;99.90;;;;;;6283279;28;20494;-82
2022/12/05 05:17:59;;;;;;;55.78;21.75;;;4.60;99.90;;;;;;6283492;28;20049;-82
2022/12/05 05:21:01;;;;;;;39.47;20.75;;;4.60;99.90;;;;;;6293868;28;20495;-81
2022/12/05 05:24:05;;;;;;;44.95;23.10;;;4.70;99.90;;;;;;6279040;28;20510;-81
2022/12/05 05:27:07;;;;;;;44.58;21.73;;;4.70;99.90;;;;;;6277261;28;20060;-81
2022/12/05 05:30:09;;;;;;;43.45;21.95;;;4.70;99.90;;;;;;6277802;28;20056;-81
2022/12/05 05:33:11;;;;;;;51.22;24.73;;;4.70;99.90;;;;;;6278494;28;20075;-82
2022/12/05 05:36:14;;;;;;;49.20;23.10;;;4.70;99.90;;;;;;6278060;28;20060;-81
2022/12/05 05:39:17;;;;;;;43.80;22.85;;;4.70;99.90;;;;;;6276833;28;20060;-82
2022/12/05 05:42:18;;;;;;;49.38;24.40;;;4.70;99.90;;;;;;6278713;28;20426;-82
2022/12/05 05:45:20;;;;;;;41.83;21.48;;;4.70;99.90;;;;;;6277492;28;20422;-82
2022/12/05 05:48:22;;;;;;;44.13;20.00;;;4.70;99.90;;;;;;6277060;28;20048;-81
2022/12/05 05:51:24;;;;;;;43.40;21.27;;;4.70;99.90;;;;;;6278045;28;20044;-81
2022/12/05 05:54:27;;;;;;;49.72;20.70;;;4.80;99.90;;;;;;6277022;28;20178;-82
2022/12/05 05:57:30;;;;;;;53.28;25.17;;;4.80;99.90;;;;;;6277489;28;20483;-81
2022/12/05 06:00:31;;;;;;;41.28;21.85;;;4.80;99.90;;;;;;6278935;28;20045;-81
2022/12/05 06:03:33;;;;;;;38.40;21.92;;;4.80;99.90;;;;;;6276609;28;20052;-82
2022/12/05 06:06:35;;;;;;;43.65;21.25;;;4.80;99.90;;;;;;6276893;28;20053;-81
2022/12/05 06:09:38;;;;;;;46.15;22.15;;;4.80;99.90;;;;;;6275824;28;20060;-80
2022/12/05 06:12:40;;;;;;;54.45;24.02;;;4.90;99.90;;;;;;6275215;28;20537;-81
2022/12/05 06:15:41;;;;;;;47.97;21.60;;;5.00;99.90;;;;;;6277688;28;20041;-80
2022/12/05 06:18:43;;;;;;;46.42;23.08;;;5.00;99.90;;;;;;6276732;28;20057;-81
2022/12/05 06:21:45;;;;;;;45.75;23.75;;;5.00;99.90;;;;;;6276075;28;20049;-82
2022/12/05 06:24:48;;;;;;;40.15;20.33;;;5.00;99.90;;;;;;6277339;28;20056;-81
2022/12/05 06:27:50;;;;;;;37.17;20.65;;;5.00;99.90;;;;;;6274665;28;20048;-80
2022/12/05 06:30:52;;;;;;;55.25;24.40;;;5.00;99.90;;;;;;6277132;28;20055;-80
2022/12/05 06:33:53;;;;;;;45.53;23.92;;;5.00;99.90;;;;;;6276437;28;20049;-80
2022/12/05 06:36:55;;;;;;;40.30;23.02;;;5.00;99.90;;;;;;6277679;28;20056;-83
2022/12/05 06:39:58;;;;;;;42.70;20.83;;;5.00;99.90;;;;;;6274931;28;20056;-85
2022/12/05 06:43:00;;;;;;;44.00;20.90;;;4.90;99.90;;;;;;6275267;28;20049;-80
2022/12/05 06:46:04;;;;;;;38.97;20.55;;;4.90;99.90;;;;;;6275013;28;20056;-81
2022/12/05 06:49:06;;;;;;;41.78;20.73;;;4.90;99.90;;;;;;6273971;28;20052;-81
2022/12/05 06:52:08;;;;;;;37.72;20.58;;;4.80;99.90;;;;;;6274838;28;20045;-80
2022/12/05 06:55:11;;;;;;;40.60;22.27;;;4.80;99.90;;;;;;6275855;28;20056;-83
2022/12/05 06:58:12;;;;;;;39.95;21.17;;;4.70;99.90;;;;;;6274683;28;20041;-82
2022/12/05 07:04:46;;;;;;;38.20;20.55;;;4.70;99.90;;;;;;6222596;28;20050;-80
2022/12/05 07:07:48;;;;;;;35.40;21.02;;;4.70;99.90;;;;;;6274220;28;20060;-81
2022/12/05 07:10:54;;;;;;;41.70;22.85;;;4.70;99.90;;;;;;6258900;28;20054;-82
2022/12/05 07:13:56;;;;;;;38.63;19.80;;;4.70;99.90;;;;;;6251894;28;20052;-81
2022/12/05 07:16:58;;;;;;;40.28;20.95;;;4.70;99.90;;;;;;6251981;28;20053;-83
2022/12/05 07:19:59;;;;;;;38.60;21.00;;;4.70;99.90;;;;;;6250936;28;20057;-83
2022/12/05 07:23:01;;;;;;;39.40;20.70;;;4.60;99.90;;;;;;6251645;28;20053;-82
2022/12/05 07:26:07;;;;;;;41.30;20.90;;;4.70;99.90;;;;;;6252084;28;20056;-82
2022/12/05 07:29:09;;;;;;;33.72;18.23;;;4.70;99.90;;;;;;6270198;28;20037;-82
2022/12/05 07:32:11;;;;;;;41.25;19.63;;;4.70;99.90;;;;;;6276461;28;20526;-81
2022/12/05 07:35:13;;;;;;;38.50;21.13;;;4.70;99.90;;;;;;6276452;28;20045;-81
2022/12/05 07:38:15;;;;;;;39.85;22.35;;;4.70;99.90;;;;;;6276782;28;20056;-84
2022/12/05 07:41:23;;;;;;;40.28;20.45;;;4.80;99.90;;;;;;6277041;28;20044;-83
2022/12/05 07:44:24;;;;;;;47.08;21.13;;;4.80;99.90;;;;;;6272368;28;20041;-80
2022/12/05 07:47:26;;;;;;;34.90;20.08;;;4.80;99.90;;;;;;6269268;28;20048;-79
2022/12/05 07:50:28;;;;;;;42.53;21.77;;;4.90;99.90;;;;;;6278950;28;20049;-80
2022/12/05 07:53:30;;;;;;;33.53;20.80;;;4.90;99.90;;;;;;6278111;28;20549;-80
2022/12/05 07:56:33;;;;;;;45.00;20.48;;;4.90;99.90;;;;;;6277108;28;20049;-80
2022/12/05 07:59:35;;;;;;;39.50;20.73;;;4.80;99.90;;;;;;6277041;28;20045;-80
2022/12/05 08:02:37;;;;;;;37.47;22.40;;;4.80;99.90;;;;;;6276932;28;20049;-80
2022/12/05 08:05:38;;;;;;;34.67;20.08;;;4.80;99.90;;;;;;6275313;28;20041;-83
2022/12/05 08:08:40;;;;;;;38.85;21.95;;;4.80;99.90;;;;;;6275134;28;20053;-82
2022/12/05 08:11:43;;;;;;;33.70;19.83;;;4.80;99.90;;;;;;6278734;28;20415;-81
2022/12/05 08:14:45;;;;;;;34.78;19.45;;;4.80;99.90;;;;;;6278836;28;20056;-83
2022/12/05 08:17:46;;;;;;;38.25;22.15;;;4.90;99.90;;;;;;6281488;28;20045;-80
2022/12/05 08:20:48;;;;;;;41.00;21.08;;;4.90;99.90;;;;;;6284296;28;20426;-82
2022/12/05 08:23:50;;;;;;;32.38;19.60;;;5.00;99.90;;;;;;6282602;28;20052;-82
2022/12/05 08:26:53;;;;;;;39.65;21.05;;;5.10;99.90;;;;;;6292936;28;20053;-82
2022/12/05 08:29:55;;;;;;;36.40;21.10;;;5.10;99.90;;;;;;6277266;28;20052;-82
2022/12/05 08:32:56;;;;;;;41.33;21.65;;;5.20;99.90;;;;;;6279276;28;20049;-81
2022/12/05 08:36:01;;;;;;;42.42;21.52;;;5.10;99.90;;;;;;6284769;28;20041;-81
2022/12/05 08:39:05;;;;;;;40.95;19.85;;;5.10;99.90;;;;;;6287363;28;20049;-82
2022/12/05 08:42:08;;;;;;;38.28;20.17;;;5.10;99.90;;;;;;6282262;28;20075;-82
2022/12/05 08:45:10;;;;;;;37.92;20.90;;;5.10;99.90;;;;;;6280703;28;20041;-81
2022/12/05 08:48:12;;;;;;;38.38;20.48;;;5.10;99.90;;;;;;6280387;28;20056;-81
2022/12/05 08:51:14;;;;;;;43.55;21.77;;;5.20;99.90;;;;;;6280447;28;20403;-82
2022/12/05 08:54:16;;;;;;;37.80;20.73;;;5.20;99.90;;;;;;6280045;28;20053;-81
2022/12/05 08:57:19;;;;;;;44.42;19.88;;;5.20;99.90;;;;;;6279043;28;20110;-82
2022/12/05 09:00:21;;;;;;;50.15;22.92;;;5.20;99.90;;;;;;6278557;28;20044;-81
2022/12/05 09:03:23;;;;;;;38.03;20.73;;;5.20;99.90;;;;;;6279280;28;20076;-81
2022/12/05 09:06:25;;;;;;;39.33;22.25;;;5.30;99.90;;;;;;6279689;28;20525;-81
2022/12/05 09:09:27;;;;;;;44.33;22.35;;;5.40;99.90;;;;;;6278826;28;20052;-82
2022/12/05 09:12:30;;;;;;;39.08;20.15;;;5.40;99.90;;;;;;6279663;28;20054;-81
2022/12/05 09:15:31;;;;;;;41.30;21.85;;;5.40;99.90;;;;;;6272834;28;20048;-79
2022/12/05 09:18:33;;;;;;;36.60;22.33;;;5.40;99.90;;;;;;6282306;28;20049;-79
2022/12/05 09:21:35;;;;;;;36.97;20.88;;;5.40;99.90;;;;;;6281447;28;20048;-79
2022/12/05 09:24:37;;;;;;;37.35;21.08;;;5.50;99.90;;;;;;6281354;28;20052;-80
2022/12/05 09:27:40;;;;;;;36.85;20.38;;;5.50;99.90;;;;;;6281726;28;20053;-81
2022/12/05 09:30:42;;;;;;;37.53;21.98;;;5.40;99.90;;;;;;6278417;28;20056;-83
2022/12/05 09:33:44;;;;;;;41.05;21.92;;;5.50;99.90;;;;;;6279022;28;20092;-81
2022/12/05 09:36:50;;;;;;;33.47;20.55;;;5.50;99.90;;;;;;6282318;28;20045;-81
2022/12/05 09:39:52;;;;;;;50.75;20.45;;;5.60;99.90;;;;;;6281900;28;20064;-81
2022/12/05 09:43:06;;;;;;;34.90;22.10;;;5.50;99.90;;;;;;6280714;28;20060;-80
2022/12/05 09:46:18;;;;;;;37.10;19.83;;;5.60;99.90;;;;;;6280332;28;20041;-81
2022/12/05 09:49:21;;;;;;;33.70;21.80;;;5.60;99.90;;;;;;6280593;28;20049;-80
2022/12/05 09:52:27;;;;;;;34.80;20.80;;;5.60;99.90;;;;;;6283987;28;20029;-81
2022/12/05 09:55:35;;;;;;;37.13;21.17;;;5.60;99.90;;;;;;6281546;28;20068;-80
2022/12/05 09:58:44;;;;;;;33.10;20.50;;;5.60;99.90;;;;;;6282180;28;20416;-80
2022/12/05 10:01:55;;;;;;;35.75;20.35;;;5.70;99.90;;;;;;6280993;28;20163;-80
2022/12/05 10:05:03;;;;;;;40.10;21.80;;;5.70;99.90;;;;;;6281785;28;20084;-80
2022/12/05 10:08:13;;;;;;;36.65;19.40;;;5.80;99.90;;;;;;6279701;28;20052;-81
2022/12/05 10:11:25;;;;;;;40.28;23.38;;;5.80;99.90;;;;;;6279890;28;20048;-82
2022/12/05 10:14:35;;;;;;;39.08;20.88;;;5.80;99.90;;;;;;6277322;28;20163;-81
2022/12/05 10:17:39;;;;;;;38.10;21.48;;;5.80;99.90;;;;;;6275094;28;20048;-81
2022/12/05 10:20:47;;;;;;;34.28;21.30;;;5.80;99.90;;;;;;6274879;28;20052;-83
2022/12/05 10:23:54;;;;;;;35.85;20.35;;;5.80;99.90;;;;;;6275372;28;20048;-80
2022/12/05 10:27:01;;;;;;;39.47;20.10;;;5.80;99.90;;;;;;6276419;28;20055;-81
2022/12/05 10:30:09;;;;;;;43.10;22.65;;;5.80;99.90;;;;;;6276119;28;20049;-81
2022/12/05 10:33:18;;;;;;;39.67;20.70;;;5.90;99.90;;;;;;6276648;28;20068;-81
2022/12/05 10:36:20;;;;;;;33.45;20.95;;;6.00;99.90;;;;;;6277276;28;20502;-81
2022/12/05 10:39:22;;;;;;;33.65;19.83;;;6.10;99.90;;;;;;6275850;28;20491;-81
2022/12/05 10:42:28;;;;;;;32.63;20.42;;;6.20;99.90;;;;;;6277197;28;20083;-82
2022/12/05 10:45:31;;;;;;;32.33;18.55;;;6.40;99.90;;;;;;6276358;28;20052;-81
2022/12/05 10:48:37;;;;;;;31.85;19.05;;;6.50;99.90;;;;;;6276487;28;20055;-82
2022/12/05 10:51:39;;;;;;;33.05;18.58;;;6.60;99.90;;;;;;6276511;28;20045;-81
2022/12/05 10:54:47;;;;;;;35.65;22.88;;;6.70;99.90;;;;;;6277321;28;20396;-81
2022/12/05 10:57:51;;;;;;;30.55;18.38;;;6.70;99.90;;;;;;6277242;28;20514;-82
2022/12/05 11:00:57;;;;;;;30.90;18.38;;;6.70;99.90;;;;;;6278268;28;20045;-82
2022/12/05 11:04:01;;;;;;;34.97;18.98;;;6.60;99.90;;;;;;6279224;28;20048;-83
2022/12/05 11:07:05;;;;;;;31.05;18.52;;;6.60;99.90;;;;;;6278212;28;20142;-82
2022/12/05 11:10:20;;;;;;;29.40;19.05;;;6.60;99.90;;;;;;6278501;28;20049;-82
2022/12/05 11:13:25;;;;;;;29.20;18.58;;;6.60;99.90;;;;;;6276769;28;20053;-82
2022/12/05 11:16:31;;;;;;;28.08;17.10;;;6.60;99.90;;;;;;6276513;28;20044;-81
2022/12/05 11:19:35;;;;;;;28.70;18.45;;;6.60;99.90;;;;;;6276650;28;20059;-81
2022/12/05 11:22:36;;;;;;;36.33;21.45;;;6.60;99.90;;;;;;6277861;28;20057;-81
2022/12/05 11:25:38;;;;;;;32.88;17.58;;;6.70;99.90;;;;;;6278051;28;20037;-81
2022/12/05 11:28:40;;;;;;;37.20;21.83;;;6.80;99.90;;;;;;6277384;28;20037;-82
2022/12/05 11:31:51;;;;;;;29.65;18.70;;;6.80;99.90;;;;;;6285190;28;20051;-82
2022/12/05 11:35:05;;;;;;;32.05;20.67;;;7.00;99.90;;;;;;6278520;28;20044;-82
2022/12/05 11:38:09;;;;;;;28.55;20.60;;;7.10;99.90;;;;;;6279021;28;20049;-82
2022/12/05 11:41:25;;;;;;;28.27;18.10;;;7.30;99.90;;;;;;6275647;28;20052;-82
2022/12/05 11:44:39;;;;;;;23.83;16.90;;;7.60;99.90;;;;;;6277713;28;20063;-82
2022/12/05 11:48:13;;;;;;;26.75;16.65;;;7.70;99.90;;;;;;6278949;28;20045;-82
2022/12/05 11:51:27;;;;;;;29.60;18.10;;;8.00;99.90;;;;;;6278280;28;20075;-82
2022/12/05 11:54:45;;;;;;;24.45;15.25;;;8.00;99.90;;;;;;6279228;28;20464;-82
2022/12/05 11:58:11;;;;;;;27.80;17.58;;;8.00;99.90;;;;;;6280245;28;20049;-82
2022/12/05 12:01:22;;;;;;;26.20;15.50;;;8.10;99.90;;;;;;6281255;28;20109;-81
2022/12/05 12:04:47;;;;;;;29.73;18.00;;;8.10;99.90;;;;;;6283384;28;20045;-81
2022/12/05 12:08:01;;;;;;;26.35;16.70;;;8.10;99.90;;;;;;6282927;28;20048;-81
2022/12/05 12:11:08;;;;;;;22.35;15.82;;;7.90;99.90;;;;;;6285738;28;20290;-81
2022/12/05 12:14:16;;;;;;;25.65;16.00;;;7.90;99.90;;;;;;6287355;28;20052;-80
2022/12/05 12:17:23;;;;;;;;;;;7.90;99.90;;;;;;6284908;28;20048;-80
2022/12/05 12:20:42;;;;;;;22.73;14.98;;;7.90;99.90;;;;;;6281407;28;20366;-82
2022/12/05 12:23:49;;;;;;;;;;;7.80;99.90;;;;;;6280337;28;20052;-82
2022/12/05 12:27:04;;;;;;;24.80;14.63;;;7.80;99.90;;;;;;6279680;28;19921;-82
2022/12/05 12:30:12;;;;;;;23.05;14.65;;;7.80;99.90;;;;;;6276515;28;20052;-82
2022/12/05 12:33:19;;;;;;;26.27;15.88;;;7.70;99.90;;;;;;6276735;28;20059;-81
2022/12/05 12:36:28;;;;;;;21.33;15.38;;;7.70;99.90;;;;;;6278120;28;20032;-81
2022/12/05 12:39:44;;;;;;;28.65;19.13;;;7.70;99.90;;;;;;6276222;28;20045;-82
2022/12/05 12:42:57;;;;;;;28.00;18.63;;;7.70;99.90;;;;;;6277625;28;20053;-82
2022/12/05 12:46:30;;;;;;;46.08;41.20;;;7.70;99.90;;;;;;6279559;28;20033;-81
2022/12/05 12:49:48;;;;;;;49.38;37.45;;;7.70;99.90;;;;;;6270485;28;20083;-81
2022/12/05 12:53:16;;;;;;;25.83;19.35;;;7.70;99.90;;;;;;6282006;28;20045;-82
2022/12/05 12:56:35;;;;;;;20.10;13.90;;;7.80;99.90;;;;;;6271127;28;20064;-82
2022/12/05 12:59:53;;;;;;;16.35;13.05;;;7.80;99.90;;;;;;6282292;28;20144;-81
2022/12/05 13:03:02;;;;;;;18.35;10.45;;;7.80;99.90;;;;;;6284825;28;20053;-82
2022/12/05 13:06:09;;;;;;;23.38;19.02;;;7.80;99.90;;;;;;6285661;28;20109;-81
2022/12/05 13:09:18;;;;;;;18.83;15.70;;;7.80;99.90;;;;;;6287160;28;20051;-83
2022/12/05 13:12:25;;;;;;;26.00;16.00;;;7.80;99.90;;;;;;6288512;28;20045;-80
2022/12/05 13:15:46;;;;;;;20.73;16.85;;;7.80;99.90;;;;;;6291229;28;20044;-81
2022/12/05 13:18:48;;;;;;;22.33;20.20;;;7.90;99.90;;;;;;6289450;28;20056;-83
2022/12/05 13:21:50;;;;;;;15.68;12.55;;;7.90;99.90;;;;;;6288252;28;20045;-83
2022/12/05 13:24:54;;;;;;;16.20;12.23;;;7.80;99.90;;;;;;6286345;28;20423;-81
2022/12/05 13:27:59;;;;;;;21.75;15.68;;;7.80;99.90;;;;;;6286932;28;20434;-82
2022/12/05 13:31:03;;;;;;;16.95;12.32;;;7.90;99.90;;;;;;6287098;28;20036;-82
2022/12/05 13:34:45;;;;;;;50.97;45.45;;;7.90;99.90;;;;;;6296348;28;20044;-82
2022/12/05 13:44:34;;;;;;;21.30;17.17;;;7.90;99.90;;;;;;6288365;28;20044;-81
2022/12/05 13:47:46;;;;;;;18.77;14.57;;;7.90;99.90;;;;;;6277825;28;20051;-82
2022/12/05 13:50:54;;;;;;;17.27;11.50;;;7.90;99.90;;;;;;6289582;28;20303;-82
2022/12/05 13:54:00;;;;;;;12.93;10.52;;;7.90;99.90;;;;;;6286939;28;20422;-81
2022/12/05 13:57:04;;;;;;;13.25;10.18;;;7.90;99.90;;;;;;6287279;28;20029;-81
2022/12/05 14:00:22;;;;;;;12.40;9.35;;;7.90;99.90;;;;;;6286874;28;20057;-82
2022/12/05 14:03:54;;;;;;;15.15;10.45;;;7.90;99.90;;;;;;6285059;28;20049;-82
2022/12/05 14:06:57;;;;;;;11.05;8.00;;;7.90;99.90;;;;;;6287268;28;20059;-82
2022/12/05 14:09:59;;;;;;;11.43;7.55;;;7.90;99.90;;;;;;6287715;28;20045;-82
2022/12/05 14:13:24;;;;;;;6.53;5.75;;;7.80;99.90;;;;;;6287223;28;20044;-82
2022/12/05 14:16:44;;;;;;;6.38;4.68;;;7.80;99.90;;;;;;6282646;28;20041;-83
2022/12/05 14:19:58;;;;;;;5.72;4.30;;;7.70;99.90;;;;;;6257304;28;20045;-82
2022/12/05 14:23:16;;;;;;;5.30;4.25;;;7.70;99.90;;;;;;6259264;28;20056;-81
2022/12/05 14:26:36;;;;;;;5.83;3.87;;;7.60;99.90;;;;;;6258532;28;20045;-82
2022/12/05 14:30:02;;;;;;;3.63;3.17;;;7.50;99.90;;;;;;6257814;28;20295;-82
2022/12/05 14:33:12;;;;;;;3.17;2.85;;;7.50;99.90;;;;;;6258484;28;20056;-82
2022/12/05 14:36:18;;;;;;;3.25;2.63;;;7.50;99.90;;;;;;6266777;28;20059;-82
2022/12/05 14:39:21;;;;;;;8.65;3.35;;;7.50;99.90;;;;;;6257936;28;20046;-82
2022/12/05 14:42:29;;;;;;;6.82;6.22;;;7.50;99.90;;;;;;6257228;28;20050;-82
2022/12/05 14:45:37;;;;;;;5.30;4.32;;;7.40;99.90;;;;;;6266358;28;20762;-82
2022/12/05 14:48:40;;;;;;;13.70;12.30;;;7.40;99.90;;;;;;6280520;28;20114;-81
2022/12/05 14:51:55;;;;;;;15.38;12.52;;;7.40;99.90;;;;;;6282207;28;20036;-82
2022/12/05 14:55:04;;;;;;;17.05;14.30;;;7.40;99.90;;;;;;6282185;28;20052;-82
2022/12/05 14:58:16;;;;;;;9.02;8.13;;;7.30;99.90;;;;;;6281184;28;20045;-82
2022/12/05 15:01:23;;;;;;;8.75;7.82;;;7.30;99.90;;;;;;6281239;28;20059;-82
2022/12/05 15:04:32;;;;;;;27.17;22.75;;;7.30;99.90;;;;;;6281078;28;20111;-82
2022/12/05 15:07:37;;;;;;;15.52;13.88;;;7.20;99.90;;;;;;6281515;28;20438;-82
2022/12/05 15:10:39;;;;;;;20.92;17.83;;;7.20;99.90;;;;;;6283462;28;20060;-82
2022/12/05 15:13:41;;;;;;;12.68;11.60;;;7.20;99.90;;;;;;6282739;28;20059;-82
2022/12/05 15:16:48;;;;;;;7.38;6.68;;;7.20;99.90;;;;;;6279468;28;20045;-82
2022/12/05 15:19:56;;;;;;;6.53;5.90;;;7.10;99.90;;;;;;6287591;28;20060;-83
2022/12/05 15:22:58;;;;;;;7.53;6.13;;;7.10;99.90;;;;;;6289295;28;20033;-82
2022/12/05 15:25:59;;;;;;;8.35;6.72;;;7.10;99.90;;;;;;6287022;28;20040;-82
2022/12/05 15:29:06;;;;;;;10.65;9.10;;;7.10;99.90;;;;;;6287240;28;20045;-81
2022/12/05 15:32:18;;;;;;;31.52;21.73;;;7.00;99.90;;;;;;6285448;28;20056;-81
2022/12/05 15:35:23;;;;;;;73.72;38.47;;;7.00;99.90;;;;;;6285600;28;20045;-81
2022/12/05 15:38:29;;;;;;;39.63;19.63;;;7.00;99.90;;;;;;6286486;28;20115;-82
2022/12/05 15:41:31;;;;;;;13.75;7.75;;;6.90;99.90;;;;;;6284662;28;20701;-82
2022/12/05 15:44:33;;;;;;;26.45;15.00;;;6.90;99.90;;;;;;6266960;28;20049;-81
2022/12/05 15:47:36;;;;;;;35.45;19.40;;;6.90;99.90;;;;;;6283624;28;20047;-81
2022/12/05 15:50:40;;;;;;;9.30;6.85;;;6.90;99.90;;;;;;6283559;28;20045;-81
2022/12/05 15:53:47;;;;;;;9.13;8.20;;;6.80;99.90;;;;;;6284609;28;20048;-82
2022/12/05 15:56:52;;;;;;;11.32;6.30;;;6.80;99.90;;;;;;6285715;28;20048;-81
2022/12/05 16:00:01;;;;;;;12.68;8.90;;;6.80;99.90;;;;;;6284323;28;20045;-81
2022/12/05 16:03:12;;;;;;;6.15;5.32;;;6.80;99.90;;;;;;6285411;28;20052;-82
2022/12/05 16:06:17;;;;;;;5.38;4.18;;;6.80;99.90;;;;;;6284920;28;20037;-82
2022/12/05 16:09:21;;;;;;;5.15;3.50;;;6.80;99.90;;;;;;6284910;28;20053;-81
2022/12/05 16:12:27;;;;;;;5.93;3.15;;;6.70;99.90;;;;;;6285121;28;20045;-81